createdAt,value
2019-05-20T00:00:10.150Z,22.97
2019-05-20T00:02:39.381Z,23.07
2019-05-20T00:05:08.668Z,26.23
2019-05-20T00:07:37.909Z,24.70
2019-05-20T00:10:07.311Z,25.63
2019-05-20T00:12:36.572Z,23.13
2019-05-20T00:15:06.356Z,24.37
2019-05-20T00:17:35.708Z,24.60
2019-05-20T00:20:05.545Z,26.23
2019-05-20T00:22:34.836Z,22.80
2019-05-20T00:25:04.714Z,22.97
2019-05-20T00:27:33.911Z,25.70
2019-05-20T00:30:03.176Z,28.63
2019-05-20T00:32:41.142Z,29.57
2019-05-20T00:35:03.272Z,32.30
2019-05-20T00:37:32.448Z,31.93
2019-05-20T00:40:01.701Z,31.37
2019-05-20T00:42:30.995Z,33.73
2019-05-20T00:45:00.188Z,36.27
2019-05-20T00:47:29.420Z,33.87
2019-05-20T00:49:58.644Z,34.43
2019-05-20T00:52:27.836Z,32.50
2019-05-20T00:54:57.064Z,34.63
2019-05-20T00:57:26.314Z,33.17
2019-05-20T00:59:55.528Z,38.13
2019-05-20T01:02:24.764Z,34.50
2019-05-20T01:04:54.099Z,36.87
2019-05-20T01:07:23.321Z,34.90
2019-05-20T01:09:52.710Z,35.90
2019-05-20T01:12:21.926Z,37.67
2019-05-20T01:14:51.369Z,37.30
2019-05-20T01:17:20.624Z,37.00
2019-05-20T01:19:49.825Z,37.43
2019-05-20T01:22:19.031Z,35.63
2019-05-20T01:24:48.267Z,35.93
2019-05-20T01:27:17.468Z,38.70
2019-05-20T01:29:46.699Z,41.73
2019-05-20T01:32:15.911Z,36.73
2019-05-20T01:34:45.168Z,39.53
2019-05-20T01:37:14.402Z,38.27
2019-05-20T01:39:43.612Z,35.63
2019-05-20T01:42:12.828Z,37.90
2019-05-20T01:44:42.060Z,34.17
2019-05-20T01:47:11.315Z,35.10
2019-05-20T01:49:40.529Z,34.73
2019-05-20T01:52:09.752Z,32.10
2019-05-20T01:54:38.977Z,31.83
2019-05-20T01:57:08.249Z,32.80
2019-05-20T01:59:37.448Z,29.93
2019-05-20T02:02:06.674Z,27.87
2019-05-20T02:04:35.896Z,30.30
2019-05-20T02:07:05.149Z,33.43
2019-05-20T02:09:34.362Z,30.07
2019-05-20T02:12:03.608Z,33.17
2019-05-20T02:14:36.768Z,29.27
2019-05-20T02:17:05.989Z,32.77
2019-05-20T02:19:35.201Z,29.73
2019-05-20T02:22:04.408Z,32.97
2019-05-20T02:24:33.615Z,30.90
2019-05-20T02:27:02.827Z,28.40
2019-05-20T02:29:32.043Z,31.53
2019-05-20T02:32:01.249Z,31.73
2019-05-20T02:34:30.469Z,31.83
2019-05-20T02:36:59.688Z,35.30
2019-05-20T02:39:28.912Z,34.23
2019-05-20T02:41:58.184Z,32.23
2019-05-20T02:44:27.432Z,35.67
2019-05-20T02:46:56.638Z,35.07
2019-05-20T02:49:25.851Z,34.43
2019-05-20T02:51:55.481Z,33.67
2019-05-20T02:54:24.674Z,35.20
2019-05-20T02:56:53.926Z,33.83
2019-05-20T02:59:23.221Z,36.03
2019-05-20T03:01:52.466Z,36.57
2019-05-20T03:04:21.688Z,35.33
2019-05-20T03:06:50.868Z,34.20
2019-05-20T03:09:20.105Z,36.23
2019-05-20T03:11:49.395Z,33.13
2019-05-20T03:14:18.602Z,34.47
2019-05-20T03:16:47.785Z,34.50
2019-05-20T03:19:17.057Z,32.83
2019-05-20T03:21:46.273Z,29.23
2019-05-20T03:24:15.505Z,33.07
2019-05-20T03:26:44.834Z,31.37
2019-05-20T03:29:14.065Z,34.13
2019-05-20T03:31:43.296Z,31.37
2019-05-20T03:34:38.854Z,31.37
2019-05-20T03:36:43.396Z,27.73
2019-05-20T03:39:12.648Z,29.30
2019-05-20T03:41:41.858Z,29.43
2019-05-20T03:44:11.078Z,28.67
2019-05-20T03:46:40.299Z,29.50
2019-05-20T03:49:09.520Z,30.20
2019-05-20T03:51:38.719Z,31.03
2019-05-20T03:54:07.977Z,25.63
2019-05-20T03:56:37.204Z,28.53
2019-05-20T03:59:06.450Z,27.27
2019-05-20T04:01:35.646Z,30.27
2019-05-20T04:04:04.903Z,25.33
2019-05-20T04:06:34.117Z,26.57
2019-05-20T04:09:04.741Z,26.73
2019-05-20T04:11:33.984Z,31.00
2019-05-20T04:14:03.218Z,29.23
2019-05-20T04:16:32.412Z,29.23
2019-05-20T04:19:01.646Z,28.50
2019-05-20T04:21:30.866Z,27.83
2019-05-20T04:24:01.328Z,29.23
2019-05-20T04:26:31.070Z,28.43
2019-05-20T04:29:00.335Z,28.03
2019-05-20T04:31:29.536Z,27.03
2019-05-20T04:33:59.330Z,25.30
2019-05-20T04:36:28.572Z,25.70
2019-05-20T04:38:58.089Z,23.77
2019-05-20T04:41:27.307Z,22.77
2019-05-20T04:43:56.609Z,21.87
2019-05-20T04:46:25.857Z,22.03
2019-05-20T04:48:55.083Z,23.03
2019-05-20T04:51:24.336Z,22.30
2019-05-20T04:53:53.616Z,18.60
2019-05-20T04:56:22.835Z,19.47
2019-05-20T04:58:52.081Z,22.10
2019-05-20T05:01:21.330Z,17.80
2019-05-20T05:03:50.579Z,19.77
2019-05-20T05:06:19.897Z,19.07
2019-05-20T05:08:49.108Z,15.80
2019-05-20T05:11:18.879Z,18.50
2019-05-20T05:13:48.082Z,15.40
2019-05-20T05:16:17.406Z,16.77
2019-05-20T05:18:46.832Z,14.70
2019-05-20T05:21:16.035Z,15.47
2019-05-20T05:23:58.263Z,14.57
2019-05-20T05:26:16.119Z,14.27
2019-05-20T05:28:45.342Z,15.60
2019-05-20T05:31:14.672Z,16.53
2019-05-20T05:33:43.919Z,14.53
2019-05-20T05:36:13.219Z,18.63
2019-05-20T05:38:42.488Z,17.17
2019-05-20T05:41:11.712Z,18.67
2019-05-20T05:43:40.944Z,18.33
2019-05-20T05:46:10.160Z,21.27
2019-05-20T05:48:39.408Z,19.60
2019-05-20T05:51:08.632Z,17.77
2019-05-20T05:53:38.074Z,18.57
2019-05-20T05:56:07.333Z,20.80
2019-05-20T05:58:36.668Z,19.00
2019-05-20T06:01:06.101Z,16.77
2019-05-20T06:03:35.397Z,19.20
2019-05-20T06:06:12.069Z,20.03
2019-05-20T06:08:35.672Z,17.67
2019-05-20T06:11:04.913Z,14.50
2019-05-20T06:13:34.131Z,14.70
2019-05-20T06:16:03.389Z,17.83
2019-05-20T06:18:32.739Z,13.20
2019-05-20T06:21:02.198Z,15.17
2019-05-20T06:23:31.441Z,14.63
2019-05-20T06:26:00.817Z,12.90
2019-05-20T06:28:30.091Z,14.70
2019-05-20T06:30:59.565Z,16.50
2019-05-20T06:33:28.832Z,14.63
2019-05-20T06:35:58.073Z,13.17
2019-05-20T06:38:43.024Z,16.33
2019-05-20T06:41:12.541Z,12.80
2019-05-20T06:43:41.860Z,15.37
2019-05-20T06:46:11.058Z,13.87
2019-05-20T06:48:40.269Z,13.43
2019-05-20T06:51:09.505Z,14.30
2019-05-20T06:53:38.711Z,13.53
2019-05-20T06:56:08.002Z,14.70
2019-05-20T06:58:37.238Z,16.47
2019-05-20T07:01:06.436Z,13.73
2019-05-20T07:03:36.261Z,13.50
2019-05-20T07:06:05.550Z,13.63
2019-05-20T07:08:34.761Z,15.53
2019-05-20T07:11:04.194Z,15.27
2019-05-20T07:13:33.541Z,16.53
2019-05-20T07:16:02.766Z,17.63
2019-05-20T07:18:31.977Z,12.77
2019-05-20T07:21:01.222Z,15.13
2019-05-20T07:23:30.546Z,16.00
2019-05-20T07:25:59.749Z,18.77
2019-05-20T07:28:29.081Z,19.97
2019-05-20T07:30:58.469Z,16.63
2019-05-20T07:33:27.683Z,13.63
2019-05-20T07:35:57.035Z,16.10
2019-05-20T07:38:26.396Z,12.80
2019-05-20T07:40:55.694Z,12.50
2019-05-20T07:43:24.995Z,13.00
2019-05-20T07:45:54.459Z,16.30
2019-05-20T07:48:23.955Z,15.47
2019-05-20T07:50:53.950Z,15.07
2019-05-20T07:53:24.382Z,15.00
2019-05-20T07:56:00.436Z,17.23
2019-05-20T07:58:33.725Z,14.23
2019-05-20T08:01:03.374Z,14.80
2019-05-20T08:03:32.736Z,13.63
2019-05-20T08:06:01.965Z,13.30
2019-05-20T08:08:31.741Z,11.83
2019-05-20T08:11:01.034Z,12.10
2019-05-20T08:13:30.250Z,11.27
2019-05-20T08:15:59.478Z,13.70
2019-05-20T08:18:28.685Z,11.50
2019-05-20T08:20:57.880Z,15.43
2019-05-20T08:23:27.091Z,11.07
2019-05-20T08:25:56.275Z,12.13
2019-05-20T08:28:25.530Z,9.60
2019-05-20T08:30:54.899Z,10.67
2019-05-20T08:33:24.156Z,10.33
2019-05-20T08:35:53.349Z,10.30
2019-05-20T08:38:22.572Z,11.03
2019-05-20T08:40:51.807Z,10.63
2019-05-20T08:43:21.031Z,8.50
2019-05-20T08:45:50.277Z,9.77
2019-05-20T08:48:19.498Z,10.60
2019-05-20T08:50:48.705Z,12.03
2019-05-20T08:53:17.905Z,9.87
2019-05-20T08:55:47.161Z,12.50
2019-05-20T08:58:16.410Z,10.97
2019-05-20T09:00:45.593Z,10.63
2019-05-20T09:03:14.924Z,9.03
2019-05-20T09:05:44.149Z,11.27
2019-05-20T09:08:13.397Z,9.70
2019-05-20T09:10:42.580Z,10.70
2019-05-20T09:13:11.872Z,9.60
2019-05-20T09:15:41.210Z,9.33
2019-05-20T09:18:10.380Z,8.63
2019-05-20T09:20:39.887Z,11.57
2019-05-20T09:23:09.084Z,8.83
2019-05-20T09:25:38.227Z,8.13
2019-05-20T09:28:07.444Z,7.83
2019-05-20T09:30:36.656Z,9.93
2019-05-20T09:33:05.872Z,11.03
2019-05-20T09:35:35.196Z,8.30
2019-05-20T09:38:17.703Z,8.17
2019-05-20T09:40:43.903Z,8.17
2019-05-20T09:43:13.232Z,8.57
2019-05-20T09:45:42.550Z,8.77
2019-05-20T09:48:12.198Z,9.23
2019-05-20T09:50:41.663Z,9.63
2019-05-20T09:53:10.969Z,7.57
2019-05-20T09:55:40.192Z,6.93
2019-05-20T09:58:09.397Z,7.93
2019-05-20T10:00:38.820Z,6.27
2019-05-20T10:03:08.114Z,8.30
2019-05-20T10:05:37.993Z,7.90
2019-05-20T10:08:07.465Z,6.65
2019-05-20T10:10:37.227Z,6.67
2019-05-20T10:13:07.466Z,8.63
2019-05-20T10:15:37.249Z,7.05
2019-05-20T10:18:06.478Z,8.35
2019-05-20T10:20:35.766Z,6.90
2019-05-20T10:23:04.977Z,6.97
2019-05-20T10:25:34.260Z,7.87
2019-05-20T10:28:03.450Z,7.87
2019-05-20T10:30:32.645Z,7.65
2019-05-20T10:33:01.895Z,7.53
2019-05-20T10:35:31.159Z,6.83
2019-05-20T10:38:00.416Z,6.05
2019-05-20T10:40:29.778Z,5.95
2019-05-20T10:42:58.929Z,6.05
2019-05-20T10:45:28.159Z,6.58
2019-05-20T10:47:57.375Z,7.28
2019-05-20T10:50:26.632Z,5.92
2019-05-20T10:52:55.936Z,7.05
2019-05-20T10:55:25.203Z,6.40
2019-05-20T10:57:54.579Z,8.78
2019-05-20T11:00:24.208Z,6.12
2019-05-20T11:02:53.393Z,7.60
2019-05-20T11:05:22.812Z,6.85
2019-05-20T11:07:52.629Z,7.47
2019-05-20T11:10:22.003Z,8.93
2019-05-20T11:12:51.288Z,9.43
2019-05-20T11:15:20.744Z,7.92
2019-05-20T11:17:50.035Z,9.90
2019-05-20T11:20:19.567Z,8.73
2019-05-20T11:22:48.810Z,8.73
2019-05-20T11:25:18.072Z,7.20
2019-05-20T11:27:47.284Z,8.30
2019-05-20T11:30:17.056Z,9.73
2019-05-20T11:32:46.733Z,10.03
2019-05-20T11:35:16.252Z,9.28
2019-05-20T11:37:45.703Z,7.53
2019-05-20T11:40:15.273Z,7.85
2019-05-20T11:42:44.802Z,9.35
2019-05-20T11:45:14.346Z,8.15
2019-05-20T11:47:43.535Z,8.50
2019-05-20T11:50:14.974Z,8.05
2019-05-20T11:52:44.308Z,8.43
2019-05-20T11:55:13.807Z,9.85
2019-05-20T11:57:43.024Z,12.35
2019-05-20T12:00:13.172Z,9.75
2019-05-20T12:02:42.356Z,9.35
2019-05-20T12:05:11.817Z,10.45
2019-05-20T12:07:41.024Z,9.53
2019-05-20T12:10:11.395Z,11.03
2019-05-20T12:12:40.813Z,10.93
2019-05-20T12:15:10.694Z,11.95
2019-05-20T12:17:40.141Z,10.32
2019-05-20T12:20:11.999Z,11.25
2019-05-20T12:22:41.934Z,13.43
2019-05-20T12:25:11.497Z,10.82
2019-05-20T12:27:41.132Z,11.95
2019-05-20T12:30:10.992Z,12.55
2019-05-20T12:32:40.333Z,12.35
2019-05-20T12:35:10.262Z,11.25
2019-05-20T12:37:40.269Z,12.90
2019-05-20T12:40:10.329Z,10.53
2019-05-20T12:42:39.858Z,10.95
2019-05-20T12:45:10.238Z,14.73
2019-05-20T12:47:39.524Z,11.88
2019-05-20T12:50:10.726Z,9.85
2019-05-20T12:52:40.293Z,10.55
2019-05-20T12:55:10.503Z,9.18
2019-05-20T12:57:39.966Z,9.35
2019-05-20T13:00:12.139Z,10.75
2019-05-20T13:02:41.693Z,11.22
2019-05-20T13:05:11.283Z,13.68
2019-05-20T13:07:40.699Z,9.05
2019-05-20T13:10:26.981Z,11.22
2019-05-20T13:12:43.172Z,10.75
2019-05-20T13:15:13.796Z,11.48
2019-05-20T13:17:45.092Z,12.45
2019-05-20T13:20:14.145Z,9.68
2019-05-20T13:22:43.348Z,11.43
2019-05-20T13:25:13.323Z,10.08
2019-05-20T13:27:42.772Z,14.78
2019-05-20T13:30:12.692Z,9.40
2019-05-20T13:32:42.128Z,11.05
2019-05-20T13:35:11.809Z,9.25
2019-05-20T13:37:41.199Z,10.60
2019-05-20T13:40:10.707Z,10.28
2019-05-20T13:42:39.919Z,11.18
2019-05-20T13:45:09.458Z,9.85
2019-05-20T13:47:38.812Z,10.03
2019-05-20T13:50:09.077Z,10.25
2019-05-20T13:52:38.408Z,10.32
2019-05-20T13:55:09.248Z,11.35
2019-05-20T13:57:38.878Z,9.95
2019-05-20T14:00:08.861Z,9.25
2019-05-20T14:02:38.215Z,8.45
2019-05-20T14:05:08.089Z,10.65
2019-05-20T14:07:37.382Z,10.05
2019-05-20T14:10:07.453Z,11.15
2019-05-20T14:12:36.900Z,10.55
2019-05-20T14:15:06.352Z,9.85
2019-05-20T14:17:35.661Z,9.90
2019-05-20T14:20:05.310Z,11.20
2019-05-20T14:22:34.574Z,11.70
2019-05-20T14:25:04.006Z,11.78
2019-05-20T14:27:33.237Z,11.18
2019-05-20T14:30:03.125Z,10.35
2019-05-20T14:32:32.714Z,14.20
2019-05-20T14:35:02.130Z,11.65
2019-05-20T14:37:31.591Z,15.10
2019-05-20T14:40:00.928Z,13.35
2019-05-20T14:42:30.168Z,13.15
2019-05-20T14:44:59.485Z,13.70
2019-05-20T14:47:28.709Z,11.50
2019-05-20T14:49:57.951Z,11.78
2019-05-20T14:52:27.153Z,13.20
2019-05-20T14:54:56.564Z,11.33
2019-05-20T14:57:25.831Z,12.90
2019-05-20T14:59:55.096Z,14.40
2019-05-20T15:02:24.312Z,13.00
2019-05-20T15:04:53.684Z,13.62
2019-05-20T15:07:29.854Z,13.58
2019-05-20T15:09:53.936Z,13.68
2019-05-20T15:12:23.219Z,12.78
2019-05-20T15:14:52.698Z,13.78
2019-05-20T15:17:21.906Z,11.65
2019-05-20T15:19:51.168Z,14.45
2019-05-20T15:22:20.472Z,13.30
2019-05-20T15:24:49.814Z,11.93
2019-05-20T15:27:19.044Z,11.93
2019-05-20T15:29:48.257Z,10.75
2019-05-20T15:32:17.505Z,12.80
2019-05-20T15:34:46.802Z,11.95
2019-05-20T15:37:16.041Z,13.18
2019-05-20T15:39:45.415Z,12.78
2019-05-20T15:42:14.661Z,10.88
2019-05-20T15:44:43.901Z,12.78
2019-05-20T15:47:13.142Z,9.68
2019-05-20T15:49:42.342Z,9.08
2019-05-20T15:52:11.571Z,10.50
2019-05-20T15:54:40.757Z,9.23
2019-05-20T15:57:12.196Z,11.50
2019-05-20T15:59:46.063Z,12.05
2019-05-20T16:02:12.348Z,11.18
2019-05-20T16:04:41.549Z,11.63
2019-05-20T16:07:10.865Z,10.07
2019-05-20T16:09:40.168Z,11.45
2019-05-20T16:12:09.513Z,12.15
2019-05-20T16:14:38.791Z,13.90
2019-05-20T16:17:08.012Z,10.82
2019-05-20T16:19:37.261Z,11.27
2019-05-20T16:22:06.481Z,13.27
2019-05-20T16:24:35.709Z,10.93
2019-05-20T16:27:05.063Z,11.20
2019-05-20T16:29:34.238Z,9.90
2019-05-20T16:32:03.485Z,12.43
2019-05-20T16:34:32.670Z,11.17
2019-05-20T16:37:01.926Z,9.57
2019-05-20T16:39:31.314Z,11.53
2019-05-20T16:42:00.675Z,12.50
2019-05-20T16:44:30.014Z,10.97
2019-05-20T16:46:59.264Z,9.90
2019-05-20T16:49:28.537Z,8.80
2019-05-20T16:51:57.921Z,11.00
2019-05-20T16:54:27.123Z,8.80
2019-05-20T16:56:56.395Z,11.83
2019-05-20T16:59:25.603Z,11.03
2019-05-20T17:01:54.880Z,10.43
2019-05-20T17:04:24.160Z,12.47
2019-05-20T17:06:54.495Z,10.63
2019-05-20T17:09:23.689Z,10.57
2019-05-20T17:11:52.913Z,8.67
2019-05-20T17:14:22.230Z,11.20
2019-05-20T17:16:51.453Z,9.70
2019-05-20T17:19:20.689Z,10.20
2019-05-20T17:21:49.973Z,8.77
2019-05-20T17:24:19.230Z,10.00
2019-05-20T17:26:56.696Z,8.23
2019-05-20T17:29:25.946Z,10.00
2019-05-20T17:31:55.297Z,8.07
2019-05-20T17:34:24.508Z,8.43
2019-05-20T17:36:54.025Z,8.23
2019-05-20T17:39:23.355Z,10.70
2019-05-20T17:41:52.615Z,8.10
2019-05-20T17:44:21.916Z,10.43
2019-05-20T17:46:51.251Z,7.97
2019-05-20T17:49:20.460Z,9.33
2019-05-20T17:51:49.681Z,8.27
2019-05-20T17:54:18.983Z,8.83
2019-05-20T17:56:48.200Z,8.23
2019-05-20T17:59:17.489Z,8.57
2019-05-20T18:01:46.937Z,8.83
2019-05-20T18:04:16.135Z,9.80
2019-05-20T18:06:45.398Z,9.20
2019-05-20T18:09:14.833Z,11.33
2019-05-20T18:11:44.084Z,10.07
2019-05-20T18:14:13.282Z,9.63
2019-05-20T18:16:42.584Z,12.87
2019-05-20T18:19:11.819Z,10.77
2019-05-20T18:21:41.028Z,10.50
2019-05-20T18:24:10.350Z,12.30
2019-05-20T18:26:39.566Z,8.30
2019-05-20T18:29:08.764Z,8.27
2019-05-20T18:31:38.003Z,9.17
2019-05-20T18:34:07.251Z,9.60
2019-05-20T18:36:36.481Z,8.87
2019-05-20T18:39:07.091Z,9.77
2019-05-20T18:41:36.308Z,8.53
2019-05-20T18:44:05.488Z,8.63
2019-05-20T18:46:34.688Z,10.27
2019-05-20T18:49:03.912Z,13.37
2019-05-20T18:51:33.851Z,9.73
2019-05-20T18:54:03.014Z,11.50
2019-05-20T18:56:32.238Z,8.83
2019-05-20T18:59:01.473Z,8.40
2019-05-20T19:01:30.715Z,9.83
2019-05-20T19:04:00.637Z,10.70
2019-05-20T19:06:30.215Z,9.23
2019-05-20T19:09:00.378Z,9.93
2019-05-20T19:11:30.575Z,11.30
2019-05-20T19:14:00.294Z,8.33
2019-05-20T19:16:30.091Z,10.00
2019-05-20T19:18:59.366Z,8.37
2019-05-20T19:21:29.327Z,8.53
2019-05-20T19:23:59.809Z,10.97
2019-05-20T19:26:30.603Z,9.33
2019-05-20T19:29:00.296Z,8.40
2019-05-20T19:31:29.945Z,9.73
2019-05-20T19:33:59.289Z,9.33
2019-05-20T19:36:28.809Z,8.60
2019-05-20T19:38:58.239Z,9.33
2019-05-20T19:41:27.809Z,9.90
2019-05-20T19:43:57.650Z,10.10
2019-05-20T19:46:27.200Z,11.17
2019-05-20T19:48:56.599Z,11.03
2019-05-20T19:51:26.322Z,12.77
2019-05-20T19:53:55.672Z,10.27
2019-05-20T19:56:29.869Z,9.87
2019-05-20T19:58:59.272Z,9.57
2019-05-20T20:01:29.581Z,11.13
2019-05-20T20:03:58.796Z,10.00
2019-05-20T20:06:31.301Z,9.27
2019-05-20T20:09:00.517Z,9.70
2019-05-20T20:11:29.773Z,10.97
2019-05-20T20:13:59.012Z,12.83
2019-05-20T20:16:28.364Z,9.57
2019-05-20T20:18:57.573Z,11.30
2019-05-20T20:21:26.924Z,10.30
2019-05-20T20:23:56.356Z,10.10
2019-05-20T20:26:27.241Z,10.43
2019-05-20T20:28:56.484Z,11.13
2019-05-20T20:31:25.754Z,11.30
2019-05-20T20:33:54.999Z,11.10
2019-05-20T20:36:24.433Z,11.87
2019-05-20T20:38:53.734Z,9.77
2019-05-20T20:41:23.083Z,9.63
2019-05-20T20:43:57.144Z,8.83
2019-05-20T20:46:26.440Z,9.70
2019-05-20T20:48:55.684Z,7.63
2019-05-20T20:51:26.243Z,8.97
2019-05-20T20:53:55.664Z,11.43
2019-05-20T20:56:27.811Z,9.20
2019-05-20T20:58:57.005Z,8.53
2019-05-20T21:01:26.468Z,7.80
2019-05-20T21:03:55.606Z,9.97
2019-05-20T21:06:25.000Z,7.80
2019-05-20T21:08:54.347Z,8.20
2019-05-20T21:11:27.729Z,7.17
2019-05-20T21:14:00.477Z,8.27
2019-05-20T21:16:29.827Z,6.23
2019-05-20T21:18:59.082Z,7.80
2019-05-20T21:21:28.477Z,5.90
2019-05-20T21:23:57.764Z,5.97
2019-05-20T21:26:26.968Z,6.57
2019-05-20T21:28:56.197Z,6.00
2019-05-20T21:31:25.513Z,6.47
2019-05-20T21:33:54.733Z,5.63
2019-05-20T21:36:23.972Z,5.30
2019-05-20T21:38:53.232Z,5.13
2019-05-20T21:41:22.461Z,6.97
2019-05-20T21:43:51.682Z,5.50
2019-05-20T21:46:20.959Z,5.57
2019-05-20T21:48:50.184Z,6.93
2019-05-20T21:51:19.396Z,6.03
2019-05-20T21:53:48.670Z,6.23
2019-05-20T21:56:17.940Z,9.30
2019-05-20T21:58:47.169Z,6.83
2019-05-20T22:01:16.489Z,8.33
2019-05-20T22:03:45.705Z,7.40
2019-05-20T22:06:14.933Z,9.17
2019-05-20T22:08:44.136Z,9.20
2019-05-20T22:11:13.368Z,8.43
2019-05-20T22:13:42.611Z,7.90
2019-05-20T22:16:11.900Z,7.53
2019-05-20T22:18:41.140Z,8.50
2019-05-20T22:21:12.185Z,6.97
2019-05-20T22:23:49.644Z,6.23
2019-05-20T22:26:18.886Z,6.27
2019-05-20T22:28:48.078Z,5.10
2019-05-20T22:31:35.061Z,6.57
2019-05-20T22:34:04.354Z,4.60
2019-05-20T22:36:33.761Z,5.03
2019-05-20T22:39:03.096Z,6.63
2019-05-20T22:41:32.295Z,4.80
2019-05-20T22:44:01.903Z,6.53
2019-05-20T22:46:31.520Z,9.10
2019-05-20T22:49:00.780Z,6.50
2019-05-20T22:51:30.013Z,6.23
2019-05-20T22:53:59.281Z,4.73
2019-05-20T22:56:28.488Z,6.97
2019-05-20T22:58:57.705Z,4.80
2019-05-20T23:01:26.950Z,5.87
2019-05-20T23:03:56.822Z,6.13
2019-05-20T23:06:26.111Z,5.70
2019-05-20T23:08:55.289Z,4.93
2019-05-20T23:11:24.532Z,5.43
2019-05-20T23:13:54.860Z,6.00
2019-05-20T23:16:24.088Z,4.40
2019-05-20T23:18:53.296Z,6.43
2019-05-20T23:21:22.530Z,5.87
2019-05-20T23:23:51.804Z,6.23
2019-05-20T23:26:21.151Z,5.30
2019-05-20T23:28:50.369Z,6.63
2019-05-20T23:31:19.636Z,8.10
2019-05-20T23:33:48.845Z,6.77
2019-05-20T23:36:18.121Z,5.43
2019-05-20T23:38:47.384Z,5.53
2019-05-20T23:41:16.628Z,8.53
2019-05-20T23:43:45.848Z,6.40
2019-05-20T23:46:15.029Z,5.67
2019-05-20T23:48:44.345Z,6.50
2019-05-20T23:51:13.578Z,5.53
2019-05-20T23:53:42.816Z,6.47
2019-05-20T23:56:12.021Z,5.97
2019-05-20T23:58:41.260Z,4.83
